createdAt,value
2023-01-30T00:00:00.297Z,26.04
2023-01-30T00:00:30.406Z,26.07
2023-01-30T00:01:00.540Z,26.09
2023-01-30T00:01:30.638Z,26.07
2023-01-30T00:02:00.819Z,26.09
2023-01-30T00:02:30.817Z,26.06
2023-01-30T00:03:00.924Z,26.07
2023-01-30T00:03:31.043Z,26.14
2023-01-30T00:04:01.170Z,26.06
2023-01-30T00:04:31.162Z,26.06
2023-01-30T00:05:01.326Z,26.07
2023-01-30T00:05:31.320Z,26.10
2023-01-30T00:06:01.447Z,26.12
2023-01-30T00:06:31.540Z,26.12
2023-01-30T00:07:01.684Z,26.07
2023-01-30T00:07:31.663Z,26.09
2023-01-30T00:08:01.772Z,26.13
2023-01-30T00:08:31.873Z,26.12
2023-01-30T00:09:02.004Z,26.18
2023-01-30T00:09:31.996Z,26.10
2023-01-30T00:10:02.156Z,26.17
2023-01-30T00:10:32.121Z,26.18
2023-01-30T00:11:02.232Z,26.21
2023-01-30T00:11:32.342Z,26.13
2023-01-30T00:12:02.337Z,26.19
2023-01-30T00:12:32.362Z,26.21
2023-01-30T00:13:02.473Z,26.19
2023-01-30T00:13:32.588Z,26.26
2023-01-30T00:14:02.731Z,26.24
2023-01-30T00:14:32.723Z,26.23
2023-01-30T00:15:02.867Z,26.23
2023-01-30T00:15:32.844Z,26.27
2023-01-30T00:16:03.090Z,26.26
2023-01-30T00:16:33.113Z,26.29
2023-01-30T00:17:03.128Z,26.26
2023-01-30T00:17:33.223Z,26.27
2023-01-30T00:18:03.343Z,26.29
2023-01-30T00:18:33.452Z,26.27
2023-01-30T00:19:03.622Z,26.29
2023-01-30T00:19:33.593Z,26.30
2023-01-30T00:20:03.703Z,26.29
2023-01-30T00:20:33.820Z,26.32
2023-01-30T00:21:03.946Z,26.32
2023-01-30T00:21:34.056Z,26.34
2023-01-30T00:22:04.055Z,26.35
2023-01-30T00:22:34.162Z,26.30
2023-01-30T00:23:04.271Z,26.35
2023-01-30T00:23:34.385Z,26.32
2023-01-30T00:24:04.503Z,26.35
2023-01-30T00:24:34.739Z,26.33
2023-01-30T00:25:04.889Z,26.38
2023-01-30T00:25:34.885Z,26.43
2023-01-30T00:26:04.721Z,26.35
2023-01-30T00:26:34.880Z,26.36
2023-01-30T00:27:04.834Z,26.41
2023-01-30T00:27:34.945Z,26.39
2023-01-30T00:28:05.069Z,26.38
2023-01-30T00:28:35.182Z,26.45
2023-01-30T00:29:05.304Z,26.38
2023-01-30T00:29:35.416Z,26.46
2023-01-30T00:30:05.522Z,26.41
2023-01-30T00:30:35.690Z,26.41
2023-01-30T00:31:05.669Z,26.49
2023-01-30T00:31:35.677Z,26.42
2023-01-30T00:32:05.703Z,26.42
2023-01-30T00:32:35.812Z,26.42
2023-01-30T00:33:05.929Z,26.46
2023-01-30T00:33:36.037Z,26.43
2023-01-30T00:34:06.160Z,26.49
2023-01-30T00:34:36.145Z,26.47
2023-01-30T00:35:06.264Z,26.45
2023-01-30T00:35:36.371Z,26.41
2023-01-30T00:36:06.479Z,26.46
2023-01-30T00:36:36.592Z,26.52
2023-01-30T00:37:36.712Z,26.44
2023-01-30T00:38:06.825Z,26.52
2023-01-30T00:38:36.930Z,26.51
2023-01-30T00:39:07.043Z,26.44
2023-01-30T00:39:37.165Z,26.46
2023-01-30T00:40:07.202Z,26.49
2023-01-30T00:40:37.321Z,26.49
2023-01-30T00:41:07.405Z,26.46
2023-01-30T00:41:37.483Z,26.44
2023-01-30T00:42:07.556Z,26.49
2023-01-30T00:42:37.636Z,26.41
2023-01-30T00:43:07.712Z,26.48
2023-01-30T00:43:37.796Z,26.43
2023-01-30T00:44:07.860Z,26.45
2023-01-30T00:44:37.943Z,26.38
2023-01-30T00:45:08.017Z,26.38
2023-01-30T00:45:38.200Z,26.38
2023-01-30T00:46:08.262Z,26.37
2023-01-30T00:46:38.222Z,26.37
2023-01-30T00:47:08.286Z,26.39
2023-01-30T00:47:38.370Z,26.45
2023-01-30T00:48:08.432Z,26.39
2023-01-30T00:48:38.514Z,26.37
2023-01-30T00:49:08.593Z,26.37
2023-01-30T00:49:38.673Z,26.35
2023-01-30T00:50:08.753Z,26.29
2023-01-30T00:50:38.825Z,26.32
2023-01-30T00:51:08.931Z,26.33
2023-01-30T00:51:39.039Z,26.29
2023-01-30T00:52:09.144Z,26.29
2023-01-30T00:52:39.259Z,26.31
2023-01-30T00:53:09.369Z,26.31
2023-01-30T00:53:39.483Z,26.31
2023-01-30T00:54:09.604Z,26.33
2023-01-30T00:54:39.738Z,26.26
2023-01-30T00:55:09.714Z,26.33
2023-01-30T00:55:39.833Z,26.29
2023-01-30T00:56:09.958Z,26.34
2023-01-30T00:56:39.952Z,26.28
2023-01-30T00:57:10.119Z,26.38
2023-01-30T00:57:40.068Z,26.31
2023-01-30T00:58:10.183Z,26.28
2023-01-30T00:58:40.310Z,26.23
2023-01-30T00:59:10.348Z,26.28
2023-01-30T00:59:40.459Z,26.28
2023-01-30T01:00:10.571Z,26.25
2023-01-30T01:00:40.695Z,26.28
2023-01-30T01:01:10.809Z,26.23
2023-01-30T01:01:40.981Z,26.23
2023-01-30T01:02:10.990Z,26.25
2023-01-30T01:02:40.992Z,26.31
2023-01-30T01:03:10.995Z,26.26
2023-01-30T01:03:40.975Z,26.28
2023-01-30T01:04:11.081Z,26.28
2023-01-30T01:04:41.098Z,26.20
2023-01-30T01:05:11.249Z,26.25
2023-01-30T01:05:41.243Z,26.22
2023-01-30T01:06:11.346Z,26.25
2023-01-30T01:06:41.465Z,26.26
2023-01-30T01:07:11.452Z,26.20
2023-01-30T01:07:41.563Z,26.22
2023-01-30T01:08:11.680Z,26.20
2023-01-30T01:08:41.786Z,26.23
2023-01-30T01:09:11.907Z,26.27
2023-01-30T01:09:42.039Z,26.25
2023-01-30T01:10:12.126Z,26.23
2023-01-30T01:10:42.238Z,26.23
2023-01-30T01:11:12.350Z,26.25
2023-01-30T01:11:42.459Z,26.27
2023-01-30T01:12:12.573Z,26.26
2023-01-30T01:12:42.685Z,26.23
2023-01-30T01:13:12.795Z,26.27
2023-01-30T01:13:42.906Z,26.28
2023-01-30T01:14:13.017Z,26.26
2023-01-30T01:14:43.035Z,26.28
2023-01-30T01:15:13.078Z,26.33
2023-01-30T01:15:43.195Z,26.29
2023-01-30T01:16:13.359Z,26.25
2023-01-30T01:16:43.478Z,26.29
2023-01-30T01:17:13.495Z,26.25
2023-01-30T01:17:43.620Z,26.29
2023-01-30T01:18:13.604Z,26.31
2023-01-30T01:18:43.714Z,26.31
2023-01-30T01:19:13.772Z,26.33
2023-01-30T01:19:43.883Z,26.29
2023-01-30T01:20:13.992Z,26.28
2023-01-30T01:20:44.110Z,26.34
2023-01-30T01:21:14.234Z,26.31
2023-01-30T01:21:44.348Z,26.33
2023-01-30T01:22:14.452Z,26.28
2023-01-30T01:22:44.567Z,26.29
2023-01-30T01:23:14.683Z,26.31
2023-01-30T01:23:44.798Z,26.29
2023-01-30T01:24:14.906Z,26.34
2023-01-30T01:24:45.020Z,26.37
2023-01-30T01:25:15.347Z,26.39
2023-01-30T01:25:45.138Z,26.37
2023-01-30T01:26:15.338Z,26.37
2023-01-30T01:26:45.393Z,26.37
2023-01-30T01:27:15.409Z,26.40
2023-01-30T01:27:45.519Z,26.40
2023-01-30T01:28:15.634Z,26.43
2023-01-30T01:28:45.743Z,26.37
2023-01-30T01:29:15.861Z,26.43
2023-01-30T01:29:45.979Z,26.43
2023-01-30T01:30:16.086Z,26.43
2023-01-30T01:30:46.107Z,26.40
2023-01-30T01:31:16.200Z,26.43
2023-01-30T01:31:46.244Z,26.45
2023-01-30T01:32:16.256Z,26.46
2023-01-30T01:32:46.364Z,26.48
2023-01-30T01:33:16.480Z,26.48
2023-01-30T01:33:46.584Z,26.45
2023-01-30T01:34:16.712Z,26.48
2023-01-30T01:34:46.818Z,26.52
2023-01-30T01:35:17.277Z,26.49
2023-01-30T01:35:46.999Z,26.52
2023-01-30T01:36:42.346Z,26.49
2023-01-30T01:36:53.503Z,26.51
2023-01-30T01:37:17.134Z,26.54
2023-01-30T01:37:47.262Z,26.55
2023-01-30T01:38:17.367Z,26.54
2023-01-30T01:38:47.498Z,26.52
2023-01-30T01:39:17.493Z,26.57
2023-01-30T01:39:47.584Z,26.54
2023-01-30T01:40:17.700Z,26.55
2023-01-30T01:40:47.694Z,26.51
2023-01-30T01:41:17.770Z,26.54
2023-01-30T01:41:47.843Z,26.55
2023-01-30T01:42:17.913Z,26.55
2023-01-30T01:42:47.987Z,26.60
2023-01-30T01:43:18.061Z,26.55
2023-01-30T01:43:48.166Z,26.62
2023-01-30T01:44:18.253Z,26.57
2023-01-30T01:44:48.313Z,26.57
2023-01-30T01:45:18.825Z,26.60
2023-01-30T01:45:48.448Z,26.62
2023-01-30T01:46:18.462Z,26.60
2023-01-30T01:46:48.532Z,26.59
2023-01-30T01:47:18.593Z,26.60
2023-01-30T01:47:48.663Z,26.65
2023-01-30T01:48:18.746Z,26.62
2023-01-30T01:48:48.837Z,26.65
2023-01-30T01:49:18.897Z,26.60
2023-01-30T01:49:48.964Z,26.63
2023-01-30T01:50:19.041Z,26.63
2023-01-30T01:50:49.119Z,26.66
2023-01-30T01:51:19.256Z,26.63
2023-01-30T01:51:49.229Z,26.66
2023-01-30T01:52:19.339Z,26.57
2023-01-30T01:52:51.851Z,26.65
2023-01-30T01:53:19.533Z,26.60
2023-01-30T01:53:49.524Z,26.60
2023-01-30T01:54:19.645Z,26.58
2023-01-30T01:54:49.751Z,26.62
2023-01-30T01:55:20.407Z,26.63
2023-01-30T01:55:49.873Z,26.62
2023-01-30T01:56:19.987Z,26.62
2023-01-30T01:56:50.088Z,26.62
2023-01-30T01:57:20.210Z,26.63
2023-01-30T01:57:50.330Z,26.63
2023-01-30T01:58:20.428Z,26.57
2023-01-30T01:58:50.547Z,26.57
2023-01-30T01:59:20.660Z,26.54
2023-01-30T01:59:50.781Z,26.57
2023-01-30T02:00:20.892Z,26.57
2023-01-30T02:00:51.044Z,26.59
2023-01-30T02:01:21.041Z,26.59
2023-01-30T02:01:51.052Z,26.57
2023-01-30T02:02:21.310Z,26.51
2023-01-30T02:02:51.225Z,26.49
2023-01-30T02:03:21.335Z,26.55
2023-01-30T02:03:51.480Z,26.50
2023-01-30T02:04:21.451Z,26.52
2023-01-30T02:04:51.569Z,26.50
2023-01-30T02:05:21.684Z,26.52
2023-01-30T02:05:51.791Z,26.47
2023-01-30T02:06:21.926Z,26.45
2023-01-30T02:06:52.018Z,26.48
2023-01-30T02:07:22.141Z,26.45
2023-01-30T02:07:52.136Z,26.45
2023-01-30T02:08:22.247Z,26.45
2023-01-30T02:08:52.364Z,26.44
2023-01-30T02:09:22.467Z,26.48
2023-01-30T02:09:52.588Z,26.45
2023-01-30T02:10:22.714Z,26.47
2023-01-30T02:10:52.990Z,26.45
2023-01-30T02:11:22.850Z,26.41
2023-01-30T02:11:52.962Z,26.44
2023-01-30T02:12:23.074Z,26.41
2023-01-30T02:12:53.185Z,26.42
2023-01-30T02:13:23.299Z,26.41
2023-01-30T02:13:53.414Z,26.41
2023-01-30T02:14:23.521Z,26.47
2023-01-30T02:14:53.631Z,26.39
2023-01-30T02:15:23.754Z,26.42
2023-01-30T02:15:53.880Z,26.42
2023-01-30T02:16:23.872Z,26.42
2023-01-30T02:16:53.982Z,26.41
2023-01-30T02:17:24.151Z,26.36
2023-01-30T02:17:54.136Z,26.42
2023-01-30T02:18:24.206Z,26.39
2023-01-30T02:18:54.318Z,26.41
2023-01-30T02:19:24.423Z,26.41
2023-01-30T02:19:54.534Z,26.39
2023-01-30T02:20:24.668Z,26.42
2023-01-30T02:20:54.645Z,26.46
2023-01-30T02:21:24.770Z,26.47
2023-01-30T02:21:54.874Z,26.42
2023-01-30T02:22:24.989Z,26.42
2023-01-30T02:22:55.104Z,26.49
2023-01-30T02:23:25.225Z,26.42
2023-01-30T02:23:55.344Z,26.47
2023-01-30T02:24:25.441Z,26.42
2023-01-30T02:24:55.498Z,26.42
2023-01-30T02:25:25.633Z,26.47
2023-01-30T02:25:56.564Z,26.48
2023-01-30T02:26:25.682Z,26.45
2023-01-30T02:26:55.670Z,26.45
2023-01-30T02:27:25.786Z,26.42
2023-01-30T02:27:55.792Z,26.44
2023-01-30T02:28:25.903Z,26.47
2023-01-30T02:28:56.002Z,26.46
2023-01-30T02:29:26.115Z,26.50
2023-01-30T02:29:56.246Z,26.48
2023-01-30T02:30:26.507Z,26.50
2023-01-30T02:30:56.481Z,26.55
2023-01-30T02:31:26.635Z,26.48
2023-01-30T02:31:56.559Z,26.50
2023-01-30T02:32:26.677Z,26.53
2023-01-30T02:32:56.787Z,26.55
2023-01-30T02:33:26.901Z,26.56
2023-01-30T02:33:57.009Z,26.53
2023-01-30T02:34:27.127Z,26.56
2023-01-30T02:34:57.229Z,26.57
2023-01-30T02:35:27.384Z,26.61
2023-01-30T02:35:57.355Z,26.59
2023-01-30T02:36:27.489Z,26.57
2023-01-30T02:36:57.584Z,26.54
2023-01-30T02:37:27.727Z,26.56
2023-01-30T02:37:57.697Z,26.62
2023-01-30T02:38:27.808Z,26.63
2023-01-30T02:38:57.922Z,26.59
2023-01-30T02:39:28.041Z,26.59
2023-01-30T02:39:58.149Z,26.64
2023-01-30T02:40:28.291Z,26.65
2023-01-30T02:40:58.264Z,26.65
2023-01-30T02:41:28.340Z,26.68
2023-01-30T02:41:58.415Z,26.75
2023-01-30T02:42:28.492Z,26.63
2023-01-30T02:42:58.564Z,26.67
2023-01-30T02:43:28.639Z,26.75
2023-01-30T02:43:58.726Z,26.71
2023-01-30T02:44:28.792Z,26.68
2023-01-30T02:44:58.860Z,26.72
2023-01-30T02:46:06.605Z,26.71
2023-01-30T02:46:36.656Z,26.69
2023-01-30T02:47:06.731Z,26.77
2023-01-30T02:47:36.808Z,26.74
2023-01-30T02:48:06.890Z,26.78
2023-01-30T02:48:36.966Z,26.79
2023-01-30T02:49:07.012Z,26.77
2023-01-30T02:49:37.088Z,26.81
2023-01-30T02:50:07.175Z,26.77
2023-01-30T02:50:37.244Z,26.81
2023-01-30T02:51:07.550Z,26.85
2023-01-30T02:51:37.369Z,26.81
2023-01-30T02:52:07.432Z,26.77
2023-01-30T02:52:37.509Z,26.82
2023-01-30T02:53:07.587Z,26.80
2023-01-30T02:53:37.672Z,26.84
2023-01-30T02:54:07.734Z,26.82
2023-01-30T02:54:37.807Z,26.82
2023-01-30T02:55:07.881Z,26.82
2023-01-30T02:55:37.975Z,26.80
2023-01-30T02:56:07.970Z,26.80
2023-01-30T02:56:37.956Z,26.85
2023-01-30T02:57:08.080Z,26.79
2023-01-30T02:57:38.063Z,26.87
2023-01-30T02:58:08.171Z,26.79
2023-01-30T02:58:38.293Z,26.87
2023-01-30T02:59:08.409Z,26.85
2023-01-30T02:59:38.523Z,26.82
2023-01-30T03:00:08.651Z,26.84
2023-01-30T03:00:38.646Z,26.82
2023-01-30T03:01:08.744Z,26.85
2023-01-30T03:01:38.837Z,26.82
2023-01-30T03:02:08.855Z,26.89
2023-01-30T03:02:38.914Z,26.82
2023-01-30T03:03:08.912Z,26.82
2023-01-30T03:03:39.035Z,26.84
2023-01-30T03:04:09.145Z,26.85
2023-01-30T03:04:39.259Z,26.81
2023-01-30T03:05:09.362Z,26.81
2023-01-30T03:05:39.474Z,26.79
2023-01-30T03:06:09.607Z,26.79
2023-01-30T03:06:39.593Z,26.81
2023-01-30T03:07:09.701Z,26.77
2023-01-30T03:07:39.811Z,26.76
2023-01-30T03:08:09.924Z,26.73
2023-01-30T03:08:40.047Z,26.75
2023-01-30T03:09:10.157Z,26.75
2023-01-30T03:09:40.266Z,26.73
2023-01-30T03:10:10.383Z,26.70
2023-01-30T03:10:40.389Z,26.73
2023-01-30T03:11:10.468Z,26.73
2023-01-30T03:11:40.476Z,26.70
2023-01-30T03:12:10.573Z,26.64
2023-01-30T03:12:40.676Z,26.69
2023-01-30T03:13:10.790Z,26.69
2023-01-30T03:13:40.839Z,26.72
2023-01-30T03:14:10.954Z,26.67
2023-01-30T03:14:41.058Z,26.71
2023-01-30T03:15:11.168Z,26.71
2023-01-30T03:15:41.286Z,26.69
2023-01-30T03:16:11.435Z,26.72
2023-01-30T03:16:41.417Z,26.67
2023-01-30T03:17:11.536Z,26.64
2023-01-30T03:17:41.649Z,26.68
2023-01-30T03:18:11.768Z,26.68
2023-01-30T03:18:41.906Z,26.69
2023-01-30T03:19:12.014Z,26.66
2023-01-30T03:19:42.090Z,26.71
2023-01-30T03:20:12.072Z,26.69
2023-01-30T03:20:42.175Z,26.69
2023-01-30T03:21:12.327Z,26.69
2023-01-30T03:21:42.294Z,26.66
2023-01-30T03:22:12.425Z,26.64
2023-01-30T03:22:42.517Z,26.64
2023-01-30T03:23:12.635Z,26.63
2023-01-30T03:23:42.745Z,26.64
2023-01-30T03:24:12.768Z,26.63
2023-01-30T03:24:42.898Z,26.60
2023-01-30T03:25:12.882Z,26.63
2023-01-30T03:25:42.900Z,26.68
2023-01-30T03:26:13.050Z,26.65
2023-01-30T03:26:43.156Z,26.60
2023-01-30T03:27:13.139Z,26.66
2023-01-30T03:27:43.246Z,26.57
2023-01-30T03:28:13.375Z,26.68
2023-01-30T03:28:43.392Z,26.61
2023-01-30T03:29:13.496Z,26.63
2023-01-30T03:29:43.611Z,26.60
2023-01-30T03:30:13.756Z,26.66
2023-01-30T03:30:43.728Z,26.63
2023-01-30T03:31:13.920Z,26.57
2023-01-30T03:31:44.075Z,26.58
2023-01-30T03:32:13.964Z,26.63
2023-01-30T03:32:44.075Z,26.60
2023-01-30T03:33:14.166Z,26.63
2023-01-30T03:33:44.171Z,26.62
2023-01-30T03:34:14.155Z,26.61
2023-01-30T03:34:44.273Z,26.68
2023-01-30T03:35:14.390Z,26.61
2023-01-30T03:35:44.509Z,26.65
2023-01-30T03:36:14.645Z,26.63
2023-01-30T03:36:44.685Z,26.63
2023-01-30T03:37:14.627Z,26.61
2023-01-30T03:37:44.727Z,26.62
2023-01-30T03:38:14.839Z,26.58
2023-01-30T03:38:44.955Z,26.63
2023-01-30T03:39:15.062Z,26.64
2023-01-30T03:39:45.174Z,26.66
2023-01-30T03:40:15.287Z,26.68
2023-01-30T03:40:45.387Z,26.66
2023-01-30T03:41:15.531Z,26.63
2023-01-30T03:41:45.524Z,26.64
2023-01-30T03:42:15.642Z,26.68
2023-01-30T03:42:45.750Z,26.66
2023-01-30T03:43:15.861Z,26.71
2023-01-30T03:43:45.974Z,26.72
2023-01-30T03:44:16.148Z,26.69
2023-01-30T03:44:46.152Z,26.69
2023-01-30T03:45:16.534Z,26.72
2023-01-30T03:45:46.193Z,26.72
2023-01-30T03:46:16.281Z,26.77
2023-01-30T03:46:46.236Z,26.67
2023-01-30T03:47:16.292Z,26.75
2023-01-30T03:47:46.382Z,26.75
2023-01-30T03:48:16.459Z,26.73
2023-01-30T03:48:46.523Z,26.72
2023-01-30T03:49:16.619Z,26.80
2023-01-30T03:49:46.682Z,26.82
2023-01-30T03:50:16.758Z,26.78
2023-01-30T03:50:46.830Z,26.78
2023-01-30T03:51:16.928Z,26.80
2023-01-30T03:51:47.012Z,26.80
2023-01-30T03:52:17.078Z,26.84
2023-01-30T03:52:47.156Z,26.84
2023-01-30T03:53:17.255Z,26.83
2023-01-30T03:53:47.340Z,26.86
2023-01-30T03:54:17.419Z,26.81
2023-01-30T03:54:47.524Z,26.88
2023-01-30T03:55:17.930Z,26.84
2023-01-30T03:55:47.685Z,26.86
2023-01-30T03:56:17.853Z,26.82
2023-01-30T03:56:47.848Z,26.88
2023-01-30T03:57:17.963Z,26.89
2023-01-30T03:57:48.085Z,26.86
2023-01-30T03:58:18.189Z,26.89
2023-01-30T03:58:48.296Z,26.89
2023-01-30T03:59:18.431Z,26.88
2023-01-30T03:59:48.529Z,26.92
2023-01-30T04:00:18.636Z,26.90
2023-01-30T04:00:48.635Z,26.86
2023-01-30T04:01:18.808Z,26.89
2023-01-30T04:01:48.817Z,26.92
2023-01-30T04:02:18.832Z,26.92
2023-01-30T04:02:48.813Z,26.89
2023-01-30T04:03:18.917Z,26.90
2023-01-30T04:03:49.039Z,26.95
2023-01-30T04:04:19.078Z,26.92
2023-01-30T04:04:49.195Z,26.93
2023-01-30T04:05:19.739Z,26.90
2023-01-30T04:05:49.366Z,26.95
2023-01-30T04:06:19.486Z,26.90
2023-01-30T04:06:49.632Z,26.90
2023-01-30T04:07:19.603Z,26.98
2023-01-30T04:07:49.714Z,26.94
2023-01-30T04:08:19.824Z,26.89
2023-01-30T04:08:49.943Z,26.92
2023-01-30T04:09:20.049Z,26.98
2023-01-30T04:09:50.204Z,26.98
2023-01-30T04:10:20.227Z,26.97
2023-01-30T04:10:50.188Z,26.95
2023-01-30T04:11:20.185Z,26.95
2023-01-30T04:11:50.315Z,26.96
2023-01-30T04:12:20.321Z,26.95
2023-01-30T04:12:50.436Z,26.95
2023-01-30T04:13:20.553Z,27.00
2023-01-30T04:13:50.569Z,27.00
2023-01-30T04:14:20.602Z,26.96
2023-01-30T04:14:50.689Z,26.98
2023-01-30T04:15:20.940Z,27.00
2023-01-30T04:15:50.803Z,26.98
2023-01-30T04:16:20.939Z,26.96
2023-01-30T04:16:50.985Z,26.98
2023-01-30T04:17:20.949Z,26.98
2023-01-30T04:17:51.061Z,26.97
2023-01-30T04:18:21.165Z,26.90
2023-01-30T04:18:51.286Z,27.00
2023-01-30T04:19:21.274Z,26.95
2023-01-30T04:19:51.391Z,27.01
2023-01-30T04:20:21.506Z,26.96
2023-01-30T04:20:51.628Z,26.98
2023-01-30T04:21:21.615Z,26.98
2023-01-30T04:21:51.732Z,27.04
2023-01-30T04:22:21.728Z,27.00
2023-01-30T04:22:51.841Z,26.95
2023-01-30T04:23:21.946Z,26.98
2023-01-30T04:23:52.073Z,27.00
2023-01-30T04:24:22.181Z,26.98
2023-01-30T04:24:52.296Z,26.99
2023-01-30T04:25:22.403Z,27.01
2023-01-30T04:25:52.407Z,27.01
2023-01-30T04:26:22.541Z,26.96
2023-01-30T04:26:52.539Z,27.00
2023-01-30T04:27:22.530Z,27.01
2023-01-30T04:27:52.520Z,26.92
2023-01-30T04:28:22.632Z,27.00
2023-01-30T04:28:52.750Z,26.94
2023-01-30T04:29:22.892Z,26.95
2023-01-30T04:29:52.914Z,26.91
2023-01-30T04:30:23.099Z,26.95
2023-01-30T04:30:53.102Z,26.89
2023-01-30T04:31:23.194Z,26.94
2023-01-30T04:31:53.167Z,26.88
2023-01-30T04:32:23.168Z,26.91
2023-01-30T04:32:53.146Z,26.94
2023-01-30T04:33:23.280Z,26.88
2023-01-30T04:33:53.374Z,26.88
2023-01-30T04:34:23.487Z,26.91
2023-01-30T04:34:53.607Z,26.86
2023-01-30T04:35:23.725Z,26.91
2023-01-30T04:35:53.827Z,26.83
2023-01-30T04:36:23.933Z,26.86
2023-01-30T04:36:54.062Z,26.85
2023-01-30T04:37:24.064Z,26.84
2023-01-30T04:37:54.174Z,26.80
2023-01-30T04:38:24.185Z,26.81
2023-01-30T04:38:54.175Z,26.77
2023-01-30T04:39:24.299Z,26.77
2023-01-30T04:39:54.410Z,26.75
2023-01-30T04:40:24.536Z,26.73
2023-01-30T04:40:54.634Z,26.68
2023-01-30T04:41:24.755Z,26.72
2023-01-30T04:41:54.868Z,26.67
2023-01-30T04:42:24.979Z,26.69
2023-01-30T04:42:55.093Z,26.73
2023-01-30T04:43:25.203Z,26.64
2023-01-30T04:43:55.322Z,26.64
2023-01-30T04:44:25.446Z,26.66
2023-01-30T04:44:55.540Z,26.63
2023-01-30T04:45:25.527Z,26.63
2023-01-30T04:45:55.617Z,26.63
2023-01-30T04:46:25.711Z,26.63
2023-01-30T04:46:55.780Z,26.66
2023-01-30T04:47:25.886Z,26.61
2023-01-30T04:47:55.868Z,26.63
2023-01-30T04:48:25.944Z,26.60
2023-01-30T04:48:56.023Z,26.60
2023-01-30T04:49:26.110Z,26.54
2023-01-30T04:49:56.125Z,26.58
2023-01-30T04:50:26.194Z,26.50
2023-01-30T04:50:56.269Z,26.57
2023-01-30T04:51:26.347Z,26.57
2023-01-30T04:51:56.416Z,26.63
2023-01-30T04:52:26.521Z,26.65
2023-01-30T04:52:56.627Z,26.63
2023-01-30T04:53:26.662Z,26.60
2023-01-30T04:53:56.735Z,26.60
2023-01-30T04:54:26.810Z,26.66
2023-01-30T04:54:56.887Z,26.63
2023-01-30T04:55:26.965Z,26.63
2023-01-30T04:55:57.082Z,26.74
2023-01-30T04:56:27.075Z,26.84
2023-01-30T04:56:57.180Z,26.77
2023-01-30T04:57:27.290Z,26.74
2023-01-30T04:57:57.417Z,26.71
2023-01-30T04:58:27.413Z,26.84
2023-01-30T04:58:57.522Z,27.08
2023-01-30T04:59:27.636Z,26.91
2023-01-30T04:59:57.771Z,26.92
2023-01-30T05:00:27.814Z,26.94
2023-01-30T05:00:57.879Z,26.95
2023-01-30T05:01:27.903Z,26.89
2023-01-30T05:01:58.066Z,26.89
2023-01-30T05:02:28.013Z,26.96
2023-01-30T05:02:58.137Z,27.17
2023-01-30T05:03:28.124Z,27.23
2023-01-30T05:03:58.243Z,27.27
2023-01-30T05:04:28.352Z,27.22
2023-01-30T05:04:58.467Z,27.22
2023-01-30T05:05:28.585Z,27.29
2023-01-30T05:05:58.697Z,27.28
2023-01-30T05:06:28.838Z,27.23
2023-01-30T05:06:58.833Z,27.31
2023-01-30T05:07:28.820Z,27.34
2023-01-30T05:07:58.934Z,27.37
2023-01-30T05:08:29.046Z,27.33
2023-01-30T05:08:59.161Z,27.34
2023-01-30T05:09:29.155Z,27.33
2023-01-30T05:09:59.264Z,27.29
2023-01-30T05:10:29.381Z,27.27
2023-01-30T05:10:59.519Z,27.31
2023-01-30T05:11:29.544Z,27.29
2023-01-30T05:11:59.666Z,27.21
2023-01-30T05:12:29.645Z,27.26
2023-01-30T05:12:59.639Z,27.22
2023-01-30T05:13:29.756Z,27.23
2023-01-30T05:13:59.870Z,27.17
2023-01-30T05:14:29.983Z,27.20
2023-01-30T05:15:00.157Z,27.10
2023-01-30T05:15:30.141Z,27.19
2023-01-30T05:16:00.224Z,27.10
2023-01-30T05:16:30.331Z,27.13
2023-01-30T05:17:00.499Z,27.15
2023-01-30T05:17:30.539Z,27.11
2023-01-30T05:18:00.541Z,27.08
2023-01-30T05:18:30.632Z,27.08
2023-01-30T05:19:00.747Z,27.24
2023-01-30T05:19:30.868Z,27.31
2023-01-30T05:20:00.882Z,27.45
2023-01-30T05:20:30.983Z,27.51
2023-01-30T05:21:01.093Z,27.50
2023-01-30T05:21:31.119Z,27.56
2023-01-30T05:22:01.126Z,27.50
2023-01-30T05:22:31.167Z,27.52
2023-01-30T05:23:01.154Z,27.50
2023-01-30T05:23:31.142Z,27.56
2023-01-30T05:24:01.252Z,27.61
2023-01-30T05:24:31.367Z,27.76
2023-01-30T05:25:01.474Z,27.74
2023-01-30T05:25:31.591Z,27.79
2023-01-30T05:26:01.693Z,27.84
2023-01-30T05:26:31.872Z,27.76
2023-01-30T05:27:01.958Z,27.79
2023-01-30T05:27:31.938Z,27.95
2023-01-30T05:28:02.054Z,27.87
2023-01-30T05:28:32.162Z,27.82
2023-01-30T05:29:02.163Z,27.79
2023-01-30T05:29:32.267Z,27.73
2023-01-30T05:30:02.384Z,27.75
2023-01-30T05:30:32.535Z,27.71
2023-01-30T05:31:02.655Z,27.83
2023-01-30T05:31:32.607Z,27.83
2023-01-30T05:32:02.621Z,27.67
2023-01-30T05:32:32.600Z,27.78
2023-01-30T05:33:02.708Z,27.81
2023-01-30T05:33:32.856Z,27.75
2023-01-30T05:34:02.843Z,27.81
2023-01-30T05:34:32.963Z,27.78
2023-01-30T05:35:03.195Z,27.85
2023-01-30T05:35:33.191Z,27.81
2023-01-30T05:36:03.420Z,27.85
2023-01-30T05:36:33.382Z,27.80
2023-01-30T05:37:03.519Z,27.80
2023-01-30T05:37:33.506Z,27.85
2023-01-30T05:38:03.613Z,27.88
2023-01-30T05:38:33.725Z,27.93
2023-01-30T05:39:03.717Z,27.93
2023-01-30T05:39:33.832Z,27.83
2023-01-30T05:40:03.948Z,27.85
2023-01-30T05:40:34.049Z,27.90
2023-01-30T05:41:04.166Z,27.88
2023-01-30T05:41:34.267Z,27.87
2023-01-30T05:42:04.402Z,27.84
2023-01-30T05:42:34.373Z,27.84
2023-01-30T05:43:04.484Z,27.92
2023-01-30T05:43:34.592Z,27.84
2023-01-30T05:44:04.725Z,27.90
2023-01-30T05:44:34.826Z,27.96
2023-01-30T05:45:04.933Z,27.90
2023-01-30T05:45:34.942Z,27.87
2023-01-30T05:46:05.130Z,27.81
2023-01-30T05:46:35.082Z,27.79
2023-01-30T05:47:05.181Z,27.84
2023-01-30T05:47:35.238Z,27.94
2023-01-30T05:48:05.308Z,27.80
2023-01-30T05:48:35.389Z,27.94
2023-01-30T05:49:05.465Z,27.86
2023-01-30T05:49:35.532Z,27.87
2023-01-30T05:50:05.614Z,27.80
2023-01-30T05:50:35.697Z,27.80
2023-01-30T05:51:05.774Z,27.80
2023-01-30T05:51:35.903Z,27.78
2023-01-30T05:52:05.879Z,27.77
2023-01-30T05:52:35.936Z,27.83
2023-01-30T05:53:06.016Z,27.80
2023-01-30T05:53:36.083Z,27.82
2023-01-30T05:54:06.149Z,27.82
2023-01-30T05:54:36.237Z,27.79
2023-01-30T05:55:06.305Z,27.75
2023-01-30T05:55:36.380Z,27.82
2023-01-30T05:56:06.493Z,27.77
2023-01-30T05:56:36.602Z,27.95
2023-01-30T05:57:06.728Z,28.20
2023-01-30T05:57:36.738Z,28.30
2023-01-30T05:58:06.816Z,28.45
2023-01-30T05:58:36.930Z,28.33
2023-01-30T05:59:07.038Z,28.24
2023-01-30T05:59:37.158Z,28.18
2023-01-30T06:00:07.279Z,28.14
2023-01-30T06:00:37.379Z,28.08
2023-01-30T06:01:07.531Z,28.08
2023-01-30T06:01:37.502Z,28.08
2023-01-30T06:02:07.606Z,28.02
2023-01-30T06:02:37.736Z,28.13
2023-01-30T06:03:07.756Z,28.08
2023-01-30T06:03:37.807Z,27.98
2023-01-30T06:04:07.866Z,28.05
2023-01-30T06:04:37.865Z,28.02
2023-01-30T06:05:07.974Z,28.03
2023-01-30T06:05:38.089Z,27.98
2023-01-30T06:06:08.455Z,27.94
2023-01-30T06:06:38.299Z,27.96
2023-01-30T06:07:08.412Z,27.99
2023-01-30T06:07:38.526Z,27.89
2023-01-30T06:08:08.529Z,27.96
2023-01-30T06:08:38.635Z,27.86
2023-01-30T06:09:08.754Z,27.85
2023-01-30T06:09:38.867Z,27.86
2023-01-30T06:10:08.976Z,27.85
2023-01-30T06:10:39.083Z,27.81
2023-01-30T06:11:09.240Z,27.86
2023-01-30T06:11:39.215Z,27.83
2023-01-30T06:12:09.335Z,27.77
2023-01-30T06:12:39.447Z,27.74
2023-01-30T06:13:09.434Z,27.82
2023-01-30T06:13:39.443Z,27.80
2023-01-30T06:14:09.552Z,27.80
2023-01-30T06:14:39.659Z,27.85
2023-01-30T06:15:09.762Z,27.72
2023-01-30T06:15:40.001Z,27.64
2023-01-30T06:16:10.008Z,27.75
2023-01-30T06:16:40.071Z,27.76
2023-01-30T06:17:10.035Z,27.78
2023-01-30T06:17:40.018Z,27.82
2023-01-30T06:18:10.131Z,27.83
2023-01-30T06:18:40.249Z,27.83
2023-01-30T06:19:10.360Z,27.90
2023-01-30T06:19:40.470Z,27.90
2023-01-30T06:20:10.618Z,27.83
2023-01-30T06:20:40.600Z,27.82
2023-01-30T06:21:10.750Z,27.82
2023-01-30T06:21:40.828Z,27.79
2023-01-30T06:22:10.824Z,27.80
2023-01-30T06:22:40.942Z,27.80
2023-01-30T06:23:10.929Z,27.80
2023-01-30T06:23:40.922Z,27.75
2023-01-30T06:24:11.036Z,27.75
2023-01-30T06:24:41.170Z,27.71
2023-01-30T06:25:11.156Z,27.72
2023-01-30T06:25:41.271Z,27.72
2023-01-30T06:26:11.423Z,27.72
2023-01-30T06:26:41.361Z,27.73
2023-01-30T06:27:11.388Z,27.68
2023-01-30T06:27:41.516Z,27.69
2023-01-30T06:28:11.623Z,27.68